Taos, NM

8:16 PM MDT on May 27, 2015 (GMT -0600)
Los Alamos | | Change Station
CLOSE
Current Station
Airport
Location: Los Alamos,
Elevation: 7172 ft
Nearby Weather Stations

Elev 7172 ft 35.88 °N, 106.27 °W | Updated 21 minutes ago

Partly Cloudy
Partly Cloudy
65 °F
Feels Like 65 °F
N
7
Wind Variable Wind from WSW

Today
High -- | Low -- °F
--% Chance of Precip.
Yesterday
High -- | Low -- °F
Precip. -- in
5:48 AM 8:11 PM
Waxing Gibbous, 72% visible
Pressure 30.19 in
Visibility 10.0 miles
Clouds Clear
Dew Point 31 °F
Humidity 27%
Rainfall 0.00 in
Snow Depth Not available.
UV 0 out of 12
Pollen 8.20 out of 12
Air Quality Not available.
Flu Activity Local Activity
METAR KLAM 280155Z AUTO 25006KT 10SM CLR 19/M01 A3019 RMK AO2 T01851008

More Conditions Fewer Conditions

Pressure 30.19 in
Visibility 10.0 miles
Clouds Clear
Dew Point 31 °F
Humidity 27%
Rainfall 0.00 in
Snow Depth Not available.
UV 0 out of 12
Pollen 8.20 out of 12
Air Quality Not available.
Flu Activity Local Activity
METAR KLAM 280155Z AUTO 25006KT 10SM CLR 19/M01 A3019 RMK AO2 T01851008

More Conditions Fewer Conditions

Nowcast | as of 6:50 PM MDT on May 27, 2015

Through 830 PM...isolated showers and thunderstorms will move northeast across portions of northern New Mexico. This activity will favor the area from Grants to Torreon and Cuba...areas north of Taos...and from Red River east to Cimarron and Raton. Brief rain...wind gusts to 40 mph...and a couple lightning strikes are possible.

×

10-Day Weather Forecast

Almanac

Astronomy

May. 27, 2015 Rise Set
Actual Time
Civil Twilight
Nautical Twilight
Astronomical Twilight
Moon
Length of Visible Light
Length of Day
Tomorrow will be .
, % of the Moon is Illuminated

Today's Extremes

State Highs State Lows

Community

WunderPhotos

Upload Photos

1,824,860 photos uploaded!

WunderBlogs® & News

Nearby

Air Quality

  Air Quality AQ Index Pollutant
Not available.

Snow Depth

Station Depth Elevation

Earthquake Activity

City Distance Mag. Time & Date
Minimum magnitude displayed is 2.5.

Coastal Water Temperatures

Place Temperature

Stations

Nearby Weather Stations

Station Location Temp. Windchill Dew Point Humidity Wind Precip. Elev Updated Type